sensor_id;sensor_type;location;lat;lon;timestamp;temperature;humidity
26691;DHT22;14307;51.718;8.938;2023-04-15T00:01:02;4.70;99.90
26691;DHT22;14307;51.718;8.938;2023-04-15T00:03:29;4.70;99.90
26691;DHT22;14307;51.718;8.938;2023-04-15T00:05:57;4.70;99.90
26691;DHT22;14307;51.718;8.938;2023-04-15T00:08:23;4.70;99.90
26691;DHT22;14307;51.718;8.938;2023-04-15T00:10:50;4.60;99.90
26691;DHT22;14307;51.718;8.938;2023-04-15T00:13:17;4.60;99.90
26691;DHT22;14307;51.718;8.938;2023-04-15T00:15:44;4.60;99.90
26691;DHT22;14307;51.718;8.938;2023-04-15T00:18:10;4.70;99.90
26691;DHT22;14307;51.718;8.938;2023-04-15T00:20:37;4.70;99.90
26691;DHT22;14307;51.718;8.938;2023-04-15T00:23:04;4.80;99.90
26691;DHT22;14307;51.718;8.938;2023-04-15T00:25:31;4.80;99.90
26691;DHT22;14307;51.718;8.938;2023-04-15T00:27:57;4.70;99.90
26691;DHT22;14307;51.718;8.938;2023-04-15T00:30:24;4.70;99.90
26691;DHT22;14307;51.718;8.938;2023-04-15T00:32:52;4.60;99.90
26691;DHT22;14307;51.718;8.938;2023-04-15T00:35:20;4.70;99.90
26691;DHT22;14307;51.718;8.938;2023-04-15T00:37:48;4.80;99.90
26691;DHT22;14307;51.718;8.938;2023-04-15T00:40:16;4.90;99.90
26691;DHT22;14307;51.718;8.938;2023-04-15T00:42:44;4.70;99.90
26691;DHT22;14307;51.718;8.938;2023-04-15T00:45:11;4.70;99.90
26691;DHT22;14307;51.718;8.938;2023-04-15T00:47:40;4.60;99.90
26691;DHT22;14307;51.718;8.938;2023-04-15T00:50:08;4.60;99.90
26691;DHT22;14307;51.718;8.938;2023-04-15T00:52:35;4.80;99.90
26691;DHT22;14307;51.718;8.938;2023-04-15T00:55:03;4.70;99.90
26691;DHT22;14307;51.718;8.938;2023-04-15T00:57:31;4.80;99.90
26691;DHT22;14307;51.718;8.938;2023-04-15T00:59:58;4.70;99.90
26691;DHT22;14307;51.718;8.938;2023-04-15T01:02:25;4.60;99.90
26691;DHT22;14307;51.718;8.938;2023-04-15T01:04:53;4.50;99.90
26691;DHT22;14307;51.718;8.938;2023-04-15T01:07:20;4.60;99.90
26691;DHT22;14307;51.718;8.938;2023-04-15T01:09:46;4.60;99.90
26691;DHT22;14307;51.718;8.938;2023-04-15T01:12:14;4.70;99.90
26691;DHT22;14307;51.718;8.938;2023-04-15T01:14:42;4.70;99.90
26691;DHT22;14307;51.718;8.938;2023-04-15T01:17:08;4.80;99.90
26691;DHT22;14307;51.718;8.938;2023-04-15T01:19:36;4.70;99.90
26691;DHT22;14307;51.718;8.938;2023-04-15T01:22:03;4.70;99.90
26691;DHT22;14307;51.718;8.938;2023-04-15T01:24:31;4.60;99.90
26691;DHT22;14307;51.718;8.938;2023-04-15T01:26:58;4.60;99.90
26691;DHT22;14307;51.718;8.938;2023-04-15T01:29:25;4.60;99.90
26691;DHT22;14307;51.718;8.938;2023-04-15T01:31:54;4.70;99.90
26691;DHT22;14307;51.718;8.938;2023-04-15T01:34:21;4.80;99.90
26691;DHT22;14307;51.718;8.938;2023-04-15T01:36:52;4.70;99.90
26691;DHT22;14307;51.718;8.938;2023-04-15T01:39:20;4.70;99.90
26691;DHT22;14307;51.718;8.938;2023-04-15T01:41:47;4.80;99.90
26691;DHT22;14307;51.718;8.938;2023-04-15T01:44:15;4.70;99.90
26691;DHT22;14307;51.718;8.938;2023-04-15T01:46:42;4.60;99.90
26691;DHT22;14307;51.718;8.938;2023-04-15T01:49:09;4.50;99.90
26691;DHT22;14307;51.718;8.938;2023-04-15T01:51:35;4.40;99.90
26691;DHT22;14307;51.718;8.938;2023-04-15T01:54:02;4.40;99.90
26691;DHT22;14307;51.718;8.938;2023-04-15T01:56:29;4.30;99.90
26691;DHT22;14307;51.718;8.938;2023-04-15T01:58:56;4.30;99.90
26691;DHT22;14307;51.718;8.938;2023-04-15T02:01:22;4.20;99.90
26691;DHT22;14307;51.718;8.938;2023-04-15T02:03:49;4.30;99.90
26691;DHT22;14307;51.718;8.938;2023-04-15T02:06:16;4.30;99.90
26691;DHT22;14307;51.718;8.938;2023-04-15T02:08:43;4.20;99.90
26691;DHT22;14307;51.718;8.938;2023-04-15T02:11:10;4.20;99.90
26691;DHT22;14307;51.718;8.938;2023-04-15T02:13:37;4.20;99.90
26691;DHT22;14307;51.718;8.938;2023-04-15T02:16:14;4.20;99.90
26691;DHT22;14307;51.718;8.938;2023-04-15T02:18:44;4.20;99.90
26691;DHT22;14307;51.718;8.938;2023-04-15T02:21:10;4.20;99.90
26691;DHT22;14307;51.718;8.938;2023-04-15T02:23:37;4.40;99.90
26691;DHT22;14307;51.718;8.938;2023-04-15T02:26:04;4.30;99.90
26691;DHT22;14307;51.718;8.938;2023-04-15T02:28:30;4.30;99.90
26691;DHT22;14307;51.718;8.938;2023-04-15T02:30:57;4.30;99.90
26691;DHT22;14307;51.718;8.938;2023-04-15T02:33:25;4.10;99.90
26691;DHT22;14307;51.718;8.938;2023-04-15T02:35:51;4.10;99.90
26691;DHT22;14307;51.718;8.938;2023-04-15T02:38:18;4.20;99.90
26691;DHT22;14307;51.718;8.938;2023-04-15T02:40:46;4.20;99.90
26691;DHT22;14307;51.718;8.938;2023-04-15T02:43:15;4.30;99.90
26691;DHT22;14307;51.718;8.938;2023-04-15T02:45:44;4.30;99.90
26691;DHT22;14307;51.718;8.938;2023-04-15T02:48:11;4.30;99.90
26691;DHT22;14307;51.718;8.938;2023-04-15T02:50:37;4.30;99.90
26691;DHT22;14307;51.718;8.938;2023-04-15T02:53:07;4.30;99.90
26691;DHT22;14307;51.718;8.938;2023-04-15T02:55:34;4.30;99.90
26691;DHT22;14307;51.718;8.938;2023-04-15T02:58:00;4.20;99.90
26691;DHT22;14307;51.718;8.938;2023-04-15T03:00:27;4.10;99.90
26691;DHT22;14307;51.718;8.938;2023-04-15T03:03:04;4.30;99.90
26691;DHT22;14307;51.718;8.938;2023-04-15T03:05:31;4.30;99.90
26691;DHT22;14307;51.718;8.938;2023-04-15T03:08:00;4.30;99.90
26691;DHT22;14307;51.718;8.938;2023-04-15T03:10:26;4.30;99.90
26691;DHT22;14307;51.718;8.938;2023-04-15T03:12:53;4.20;99.90
26691;DHT22;14307;51.718;8.938;2023-04-15T03:15:22;4.30;99.90
26691;DHT22;14307;51.718;8.938;2023-04-15T03:17:51;4.20;99.90
26691;DHT22;14307;51.718;8.938;2023-04-15T03:20:18;4.20;99.90
26691;DHT22;14307;51.718;8.938;2023-04-15T03:22:47;4.20;99.90
26691;DHT22;14307;51.718;8.938;2023-04-15T03:25:13;4.10;99.90
26691;DHT22;14307;51.718;8.938;2023-04-15T03:27:40;4.10;99.90
26691;DHT22;14307;51.718;8.938;2023-04-15T03:30:08;4.10;99.90
26691;DHT22;14307;51.718;8.938;2023-04-15T03:32:36;4.20;99.90
26691;DHT22;14307;51.718;8.938;2023-04-15T03:35:05;4.20;99.90
26691;DHT22;14307;51.718;8.938;2023-04-15T03:37:32;4.20;99.90
26691;DHT22;14307;51.718;8.938;2023-04-15T03:39:58;4.00;99.90
26691;DHT22;14307;51.718;8.938;2023-04-15T03:42:25;4.00;99.90
26691;DHT22;14307;51.718;8.938;2023-04-15T03:44:52;3.90;99.90
26691;DHT22;14307;51.718;8.938;2023-04-15T03:47:19;4.00;99.90
26691;DHT22;14307;51.718;8.938;2023-04-15T03:49:46;3.90;99.90
26691;DHT22;14307;51.718;8.938;2023-04-15T03:52:13;3.90;99.90
26691;DHT22;14307;51.718;8.938;2023-04-15T03:54:39;4.00;99.90
26691;DHT22;14307;51.718;8.938;2023-04-15T03:57:06;3.90;99.90
26691;DHT22;14307;51.718;8.938;2023-04-15T03:59:33;3.90;99.90
26691;DHT22;14307;51.718;8.938;2023-04-15T04:01:59;3.90;99.90
26691;DHT22;14307;51.718;8.938;2023-04-15T04:04:26;3.80;99.90
26691;DHT22;14307;51.718;8.938;2023-04-15T04:06:53;3.80;99.90
26691;DHT22;14307;51.718;8.938;2023-04-15T04:09:19;3.80;99.90
26691;DHT22;14307;51.718;8.938;2023-04-15T04:11:46;3.90;99.90
26691;DHT22;14307;51.718;8.938;2023-04-15T04:14:13;4.00;99.90
26691;DHT22;14307;51.718;8.938;2023-04-15T04:16:39;4.10;99.90
26691;DHT22;14307;51.718;8.938;2023-04-15T04:19:06;4.30;99.90
26691;DHT22;14307;51.718;8.938;2023-04-15T04:21:33;4.50;99.90
26691;DHT22;14307;51.718;8.938;2023-04-15T04:23:59;4.60;99.90
26691;DHT22;14307;51.718;8.938;2023-04-15T04:26:26;4.60;99.90
26691;DHT22;14307;51.718;8.938;2023-04-15T04:28:53;4.60;99.90
26691;DHT22;14307;51.718;8.938;2023-04-15T04:31:19;4.50;99.90
26691;DHT22;14307;51.718;8.938;2023-04-15T04:33:46;4.50;99.90
26691;DHT22;14307;51.718;8.938;2023-04-15T04:36:13;4.40;99.90
26691;DHT22;14307;51.718;8.938;2023-04-15T04:38:39;4.40;99.90
26691;DHT22;14307;51.718;8.938;2023-04-15T04:41:06;4.40;99.90
26691;DHT22;14307;51.718;8.938;2023-04-15T04:43:33;4.30;99.90
26691;DHT22;14307;51.718;8.938;2023-04-15T04:46:00;4.20;99.90
26691;DHT22;14307;51.718;8.938;2023-04-15T04:48:26;4.20;99.90
26691;DHT22;14307;51.718;8.938;2023-04-15T04:50:53;4.20;99.90
26691;DHT22;14307;51.718;8.938;2023-04-15T04:53:20;4.10;99.90
26691;DHT22;14307;51.718;8.938;2023-04-15T04:55:46;4.10;99.90
26691;DHT22;14307;51.718;8.938;2023-04-15T04:58:13;4.20;99.90
26691;DHT22;14307;51.718;8.938;2023-04-15T05:00:40;4.20;99.90
26691;DHT22;14307;51.718;8.938;2023-04-15T05:03:07;4.30;99.90
26691;DHT22;14307;51.718;8.938;2023-04-15T05:05:34;4.40;99.90
26691;DHT22;14307;51.718;8.938;2023-04-15T05:08:02;4.50;99.90
26691;DHT22;14307;51.718;8.938;2023-04-15T05:10:29;4.60;99.90
26691;DHT22;14307;51.718;8.938;2023-04-15T05:12:56;4.80;99.90
26691;DHT22;14307;51.718;8.938;2023-04-15T05:15:23;5.00;99.90
26691;DHT22;14307;51.718;8.938;2023-04-15T05:17:50;5.20;99.90
26691;DHT22;14307;51.718;8.938;2023-04-15T05:20:17;5.30;99.90
26691;DHT22;14307;51.718;8.938;2023-04-15T05:22:43;5.40;99.90
26691;DHT22;14307;51.718;8.938;2023-04-15T05:25:10;5.50;99.90
26691;DHT22;14307;51.718;8.938;2023-04-15T05:27:37;5.60;99.90
26691;DHT22;14307;51.718;8.938;2023-04-15T05:30:04;5.70;99.90
26691;DHT22;14307;51.718;8.938;2023-04-15T05:32:32;5.70;99.90
26691;DHT22;14307;51.718;8.938;2023-04-15T05:34:59;5.70;99.90
26691;DHT22;14307;51.718;8.938;2023-04-15T05:37:26;5.80;99.90
26691;DHT22;14307;51.718;8.938;2023-04-15T05:39:53;5.80;99.90
26691;DHT22;14307;51.718;8.938;2023-04-15T05:42:19;5.80;99.90
26691;DHT22;14307;51.718;8.938;2023-04-15T05:44:46;5.90;99.90
26691;DHT22;14307;51.718;8.938;2023-04-15T05:47:12;5.90;99.90
26691;DHT22;14307;51.718;8.938;2023-04-15T05:49:39;6.00;99.90
26691;DHT22;14307;51.718;8.938;2023-04-15T05:52:06;6.00;99.90
26691;DHT22;14307;51.718;8.938;2023-04-15T05:54:32;6.10;99.90
26691;DHT22;14307;51.718;8.938;2023-04-15T05:56:59;6.20;99.90
26691;DHT22;14307;51.718;8.938;2023-04-15T05:59:26;6.20;99.90
26691;DHT22;14307;51.718;8.938;2023-04-15T06:01:53;6.30;99.90
26691;DHT22;14307;51.718;8.938;2023-04-15T06:04:20;6.40;99.90
26691;DHT22;14307;51.718;8.938;2023-04-15T06:06:48;6.40;99.90
26691;DHT22;14307;51.718;8.938;2023-04-15T06:09:14;6.40;99.90
26691;DHT22;14307;51.718;8.938;2023-04-15T06:11:42;6.50;99.90
26691;DHT22;14307;51.718;8.938;2023-04-15T06:14:08;6.50;99.90
26691;DHT22;14307;51.718;8.938;2023-04-15T06:16:35;6.60;99.90
26691;DHT22;14307;51.718;8.938;2023-04-15T06:19:03;6.60;99.90
26691;DHT22;14307;51.718;8.938;2023-04-15T06:21:29;6.60;99.90
26691;DHT22;14307;51.718;8.938;2023-04-15T06:23:58;6.60;99.90
26691;DHT22;14307;51.718;8.938;2023-04-15T06:26:26;6.70;99.90
26691;DHT22;14307;51.718;8.938;2023-04-15T06:28:53;6.90;99.90
26691;DHT22;14307;51.718;8.938;2023-04-15T06:31:20;6.90;99.90
26691;DHT22;14307;51.718;8.938;2023-04-15T06:33:47;6.80;99.90
26691;DHT22;14307;51.718;8.938;2023-04-15T06:36:14;6.80;99.90
26691;DHT22;14307;51.718;8.938;2023-04-15T06:38:40;6.70;99.90
26691;DHT22;14307;51.718;8.938;2023-04-15T06:41:07;6.70;99.90
26691;DHT22;14307;51.718;8.938;2023-04-15T06:43:34;6.90;99.90
26691;DHT22;14307;51.718;8.938;2023-04-15T06:46:00;6.80;99.90
26691;DHT22;14307;51.718;8.938;2023-04-15T06:48:27;6.80;99.90
26691;DHT22;14307;51.718;8.938;2023-04-15T06:50:54;6.80;99.90
26691;DHT22;14307;51.718;8.938;2023-04-15T06:53:21;6.80;99.90
26691;DHT22;14307;51.718;8.938;2023-04-15T06:55:48;6.80;99.90
26691;DHT22;14307;51.718;8.938;2023-04-15T06:58:15;6.80;99.90
26691;DHT22;14307;51.718;8.938;2023-04-15T07:00:41;6.60;99.90
26691;DHT22;14307;51.718;8.938;2023-04-15T07:03:08;6.70;99.90
26691;DHT22;14307;51.718;8.938;2023-04-15T07:05:36;6.60;99.90
26691;DHT22;14307;51.718;8.938;2023-04-15T07:08:04;6.60;99.90
26691;DHT22;14307;51.718;8.938;2023-04-15T07:10:34;6.60;99.90
26691;DHT22;14307;51.718;8.938;2023-04-15T07:13:01;6.50;99.90
26691;DHT22;14307;51.718;8.938;2023-04-15T07:15:28;6.50;99.90
26691;DHT22;14307;51.718;8.938;2023-04-15T07:17:55;6.60;99.90
26691;DHT22;14307;51.718;8.938;2023-04-15T07:20:22;6.50;99.90
26691;DHT22;14307;51.718;8.938;2023-04-15T07:22:49;6.40;99.90
26691;DHT22;14307;51.718;8.938;2023-04-15T07:25:15;6.40;99.90
26691;DHT22;14307;51.718;8.938;2023-04-15T07:27:43;6.40;99.90
26691;DHT22;14307;51.718;8.938;2023-04-15T07:30:10;6.40;99.90
26691;DHT22;14307;51.718;8.938;2023-04-15T07:32:38;6.40;99.90
26691;DHT22;14307;51.718;8.938;2023-04-15T07:35:04;6.50;99.90
26691;DHT22;14307;51.718;8.938;2023-04-15T07:37:31;6.50;99.90
26691;DHT22;14307;51.718;8.938;2023-04-15T07:39:58;6.50;99.90
26691;DHT22;14307;51.718;8.938;2023-04-15T07:42:25;6.60;99.90
26691;DHT22;14307;51.718;8.938;2023-04-15T07:44:52;6.50;99.90
26691;DHT22;14307;51.718;8.938;2023-04-15T07:47:19;6.40;99.90
26691;DHT22;14307;51.718;8.938;2023-04-15T07:49:46;6.50;99.90
26691;DHT22;14307;51.718;8.938;2023-04-15T07:52:12;6.50;99.90
26691;DHT22;14307;51.718;8.938;2023-04-15T07:54:39;6.50;99.90
26691;DHT22;14307;51.718;8.938;2023-04-15T07:57:05;6.60;99.90
26691;DHT22;14307;51.718;8.938;2023-04-15T07:59:33;6.60;99.90
26691;DHT22;14307;51.718;8.938;2023-04-15T08:02:00;6.60;99.90
26691;DHT22;14307;51.718;8.938;2023-04-15T08:04:26;6.70;99.90
26691;DHT22;14307;51.718;8.938;2023-04-15T08:06:54;6.60;99.90
26691;DHT22;14307;51.718;8.938;2023-04-15T08:09:20;6.60;99.90
26691;DHT22;14307;51.718;8.938;2023-04-15T08:11:48;6.60;99.90
26691;DHT22;14307;51.718;8.938;2023-04-15T08:14:16;6.60;99.90
26691;DHT22;14307;51.718;8.938;2023-04-15T08:16:42;6.50;99.90
26691;DHT22;14307;51.718;8.938;2023-04-15T08:19:09;6.60;99.90
26691;DHT22;14307;51.718;8.938;2023-04-15T08:21:36;6.60;99.90
26691;DHT22;14307;51.718;8.938;2023-04-15T08:24:03;6.60;99.90
26691;DHT22;14307;51.718;8.938;2023-04-15T08:26:29;6.70;99.90
26691;DHT22;14307;51.718;8.938;2023-04-15T08:28:56;6.80;99.90
26691;DHT22;14307;51.718;8.938;2023-04-15T08:31:25;6.80;99.90
26691;DHT22;14307;51.718;8.938;2023-04-15T08:33:52;6.70;99.90
26691;DHT22;14307;51.718;8.938;2023-04-15T08:36:20;6.80;99.90
26691;DHT22;14307;51.718;8.938;2023-04-15T08:38:46;6.90;99.90
26691;DHT22;14307;51.718;8.938;2023-04-15T08:41:23;6.90;99.90
26691;DHT22;14307;51.718;8.938;2023-04-15T08:43:57;6.90;99.90
26691;DHT22;14307;51.718;8.938;2023-04-15T08:46:24;6.80;99.90
26691;DHT22;14307;51.718;8.938;2023-04-15T08:48:55;6.70;99.90
26691;DHT22;14307;51.718;8.938;2023-04-15T08:51:23;6.80;99.90
26691;DHT22;14307;51.718;8.938;2023-04-15T08:53:50;6.70;99.90
26691;DHT22;14307;51.718;8.938;2023-04-15T08:56:18;6.70;99.90
26691;DHT22;14307;51.718;8.938;2023-04-15T08:58:45;6.70;99.90
26691;DHT22;14307;51.718;8.938;2023-04-15T09:01:13;6.70;99.90
26691;DHT22;14307;51.718;8.938;2023-04-15T09:03:40;6.80;99.90
26691;DHT22;14307;51.718;8.938;2023-04-15T09:06:07;6.80;99.90
26691;DHT22;14307;51.718;8.938;2023-04-15T09:08:34;6.80;99.90
26691;DHT22;14307;51.718;8.938;2023-04-15T09:11:02;6.80;99.90
26691;DHT22;14307;51.718;8.938;2023-04-15T09:13:29;6.80;99.90
26691;DHT22;14307;51.718;8.938;2023-04-15T09:15:56;6.60;99.90
26691;DHT22;14307;51.718;8.938;2023-04-15T09:18:27;6.60;99.90
26691;DHT22;14307;51.718;8.938;2023-04-15T09:20:55;6.50;99.90
26691;DHT22;14307;51.718;8.938;2023-04-15T09:23:22;6.60;99.90
26691;DHT22;14307;51.718;8.938;2023-04-15T09:25:49;6.60;99.90
26691;DHT22;14307;51.718;8.938;2023-04-15T09:28:23;6.50;99.90
26691;DHT22;14307;51.718;8.938;2023-04-15T09:33:24;6.60;99.90
26691;DHT22;14307;51.718;8.938;2023-04-15T09:35:57;6.60;99.90
26691;DHT22;14307;51.718;8.938;2023-04-15T09:38:24;6.70;99.90
26691;DHT22;14307;51.718;8.938;2023-04-15T09:40:51;6.80;99.90
26691;DHT22;14307;51.718;8.938;2023-04-15T09:43:17;6.70;99.90
26691;DHT22;14307;51.718;8.938;2023-04-15T09:45:53;6.70;99.90
26691;DHT22;14307;51.718;8.938;2023-04-15T09:48:21;6.80;99.90
26691;DHT22;14307;51.718;8.938;2023-04-15T09:50:49;6.70;99.90
26691;DHT22;14307;51.718;8.938;2023-04-15T09:53:26;6.70;99.90
26691;DHT22;14307;51.718;8.938;2023-04-15T09:55:58;6.70;99.90
26691;DHT22;14307;51.718;8.938;2023-04-15T09:58:28;6.70;99.90
26691;DHT22;14307;51.718;8.938;2023-04-15T10:00:56;6.70;99.90
26691;DHT22;14307;51.718;8.938;2023-04-15T10:03:30;6.60;99.90
26691;DHT22;14307;51.718;8.938;2023-04-15T10:05:59;6.70;99.90
26691;DHT22;14307;51.718;8.938;2023-04-15T10:08:28;6.70;99.90
26691;DHT22;14307;51.718;8.938;2023-04-15T10:10:55;6.60;99.90
26691;DHT22;14307;51.718;8.938;2023-04-15T10:13:25;6.60;99.90
26691;DHT22;14307;51.718;8.938;2023-04-15T10:15:57;6.60;99.90
26691;DHT22;14307;51.718;8.938;2023-04-15T10:18:26;6.60;99.90
26691;DHT22;14307;51.718;8.938;2023-04-15T10:20:54;6.60;99.90
26691;DHT22;14307;51.718;8.938;2023-04-15T10:23:22;6.60;99.90
26691;DHT22;14307;51.718;8.938;2023-04-15T10:25:51;6.70;99.90
26691;DHT22;14307;51.718;8.938;2023-04-15T10:28:20;6.50;99.90
26691;DHT22;14307;51.718;8.938;2023-04-15T10:30:48;6.50;99.90
26691;DHT22;14307;51.718;8.938;2023-04-15T10:33:19;6.50;99.90
26691;DHT22;14307;51.718;8.938;2023-04-15T10:35:48;6.60;99.90
26691;DHT22;14307;51.718;8.938;2023-04-15T10:38:41;6.70;99.90
26691;DHT22;14307;51.718;8.938;2023-04-15T10:41:16;6.70;99.90
26691;DHT22;14307;51.718;8.938;2023-04-15T10:43:52;6.70;99.90
26691;DHT22;14307;51.718;8.938;2023-04-15T10:46:34;6.80;99.90
26691;DHT22;14307;51.718;8.938;2023-04-15T10:49:13;6.80;99.90
26691;DHT22;14307;51.718;8.938;2023-04-15T10:51:51;6.80;99.90
26691;DHT22;14307;51.718;8.938;2023-04-15T10:59:58;6.70;99.90
26691;DHT22;14307;51.718;8.938;2023-04-15T11:02:44;6.80;99.90
26691;DHT22;14307;51.718;8.938;2023-04-15T11:05:14;6.80;99.90
26691;DHT22;14307;51.718;8.938;2023-04-15T11:12:56;6.90;99.90
26691;DHT22;14307;51.718;8.938;2023-04-15T11:15:40;6.80;99.90
26691;DHT22;14307;51.718;8.938;2023-04-15T11:20:45;6.80;99.90
26691;DHT22;14307;51.718;8.938;2023-04-15T11:23:14;6.80;99.90
26691;DHT22;14307;51.718;8.938;2023-04-15T11:25:42;6.90;99.90
26691;DHT22;14307;51.718;8.938;2023-04-15T11:28:11;7.00;99.90
26691;DHT22;14307;51.718;8.938;2023-04-15T11:30:39;7.00;99.90
26691;DHT22;14307;51.718;8.938;2023-04-15T11:33:08;7.00;99.90
26691;DHT22;14307;51.718;8.938;2023-04-15T11:35:35;7.00;99.90
26691;DHT22;14307;51.718;8.938;2023-04-15T11:38:11;7.00;99.90
26691;DHT22;14307;51.718;8.938;2023-04-15T11:40:39;7.00;99.90
26691;DHT22;14307;51.718;8.938;2023-04-15T11:43:08;7.00;99.90
26691;DHT22;14307;51.718;8.938;2023-04-15T11:45:36;7.00;99.90
26691;DHT22;14307;51.718;8.938;2023-04-15T11:48:10;7.00;99.90
26691;DHT22;14307;51.718;8.938;2023-04-15T11:50:38;7.10;99.90
26691;DHT22;14307;51.718;8.938;2023-04-15T11:53:08;7.10;99.90
26691;DHT22;14307;51.718;8.938;2023-04-15T11:55:46;7.00;99.90
26691;DHT22;14307;51.718;8.938;2023-04-15T12:00:47;7.10;99.90
26691;DHT22;14307;51.718;8.938;2023-04-15T12:03:26;7.20;99.90
26691;DHT22;14307;51.718;8.938;2023-04-15T12:11:27;7.20;99.90
26691;DHT22;14307;51.718;8.938;2023-04-15T12:14:09;7.20;99.90
26691;DHT22;14307;51.718;8.938;2023-04-15T12:16:42;7.20;99.90
26691;DHT22;14307;51.718;8.938;2023-04-15T12:19:26;7.20;99.90
26691;DHT22;14307;51.718;8.938;2023-04-15T12:22:04;7.30;99.90
26691;DHT22;14307;51.718;8.938;2023-04-15T12:24:33;7.20;99.90
26691;DHT22;14307;51.718;8.938;2023-04-15T12:27:03;7.30;99.90
26691;DHT22;14307;51.718;8.938;2023-04-15T12:29:31;7.40;99.90
26691;DHT22;14307;51.718;8.938;2023-04-15T12:34:44;7.30;99.90
26691;DHT22;14307;51.718;8.938;2023-04-15T12:37:15;7.40;99.90
26691;DHT22;14307;51.718;8.938;2023-04-15T12:39:43;7.40;99.90
26691;DHT22;14307;51.718;8.938;2023-04-15T12:42:11;7.40;99.90
26691;DHT22;14307;51.718;8.938;2023-04-15T12:44:38;7.30;99.90
26691;DHT22;14307;51.718;8.938;2023-04-15T12:47:06;7.30;99.90
26691;DHT22;14307;51.718;8.938;2023-04-15T12:49:33;7.30;99.90
26691;DHT22;14307;51.718;8.938;2023-04-15T12:52:01;7.40;99.90
26691;DHT22;14307;51.718;8.938;2023-04-15T12:54:29;7.40;99.90
26691;DHT22;14307;51.718;8.938;2023-04-15T12:56:56;7.50;99.90
26691;DHT22;14307;51.718;8.938;2023-04-15T12:59:23;7.40;99.90
26691;DHT22;14307;51.718;8.938;2023-04-15T13:01:50;7.50;99.90
26691;DHT22;14307;51.718;8.938;2023-04-15T13:04:19;7.40;99.90
26691;DHT22;14307;51.718;8.938;2023-04-15T13:06:47;7.50;99.90
26691;DHT22;14307;51.718;8.938;2023-04-15T13:09:13;7.40;99.90
26691;DHT22;14307;51.718;8.938;2023-04-15T13:11:41;7.40;99.90
26691;DHT22;14307;51.718;8.938;2023-04-15T13:14:08;7.40;99.90
26691;DHT22;14307;51.718;8.938;2023-04-15T13:16:36;7.40;99.90
26691;DHT22;14307;51.718;8.938;2023-04-15T13:19:03;7.50;99.90
26691;DHT22;14307;51.718;8.938;2023-04-15T13:21:31;7.60;99.90
26691;DHT22;14307;51.718;8.938;2023-04-15T13:24:01;7.50;99.90
26691;DHT22;14307;51.718;8.938;2023-04-15T13:26:28;7.50;99.90
26691;DHT22;14307;51.718;8.938;2023-04-15T13:28:55;7.50;99.90
26691;DHT22;14307;51.718;8.938;2023-04-15T13:31:22;7.50;99.90
26691;DHT22;14307;51.718;8.938;2023-04-15T13:33:49;7.50;99.90
26691;DHT22;14307;51.718;8.938;2023-04-15T13:36:15;7.60;99.90
26691;DHT22;14307;51.718;8.938;2023-04-15T13:38:42;7.50;99.90
26691;DHT22;14307;51.718;8.938;2023-04-15T13:41:09;7.50;99.90
26691;DHT22;14307;51.718;8.938;2023-04-15T13:43:35;7.50;99.90
26691;DHT22;14307;51.718;8.938;2023-04-15T13:46:03;7.60;99.90
26691;DHT22;14307;51.718;8.938;2023-04-15T13:48:29;7.50;99.90
26691;DHT22;14307;51.718;8.938;2023-04-15T13:50:57;7.50;99.90
26691;DHT22;14307;51.718;8.938;2023-04-15T13:53:23;7.50;99.90
26691;DHT22;14307;51.718;8.938;2023-04-15T13:56:06;7.50;99.90
26691;DHT22;14307;51.718;8.938;2023-04-15T13:58:33;7.50;99.90
26691;DHT22;14307;51.718;8.938;2023-04-15T14:01:00;7.50;99.90
26691;DHT22;14307;51.718;8.938;2023-04-15T14:03:29;7.50;99.90
26691;DHT22;14307;51.718;8.938;2023-04-15T14:05:56;7.50;99.90
26691;DHT22;14307;51.718;8.938;2023-04-15T14:08:24;7.50;99.90
26691;DHT22;14307;51.718;8.938;2023-04-15T14:10:51;7.60;99.90
26691;DHT22;14307;51.718;8.938;2023-04-15T14:13:17;7.60;99.90
26691;DHT22;14307;51.718;8.938;2023-04-15T14:15:45;7.70;99.90
26691;DHT22;14307;51.718;8.938;2023-04-15T14:18:12;7.70;99.90
26691;DHT22;14307;51.718;8.938;2023-04-15T14:20:38;7.60;99.90
26691;DHT22;14307;51.718;8.938;2023-04-15T14:23:06;7.60;99.90
26691;DHT22;14307;51.718;8.938;2023-04-15T14:25:32;7.70;99.90
26691;DHT22;14307;51.718;8.938;2023-04-15T14:28:00;7.70;99.90
26691;DHT22;14307;51.718;8.938;2023-04-15T14:30:27;7.70;99.90
26691;DHT22;14307;51.718;8.938;2023-04-15T14:32:54;7.70;99.90
26691;DHT22;14307;51.718;8.938;2023-04-15T14:35:21;7.80;99.90
26691;DHT22;14307;51.718;8.938;2023-04-15T14:37:49;7.80;99.90
26691;DHT22;14307;51.718;8.938;2023-04-15T14:40:16;7.80;99.90
26691;DHT22;14307;51.718;8.938;2023-04-15T14:42:43;7.80;99.90
26691;DHT22;14307;51.718;8.938;2023-04-15T14:45:10;7.80;99.90
26691;DHT22;14307;51.718;8.938;2023-04-15T14:47:36;7.80;99.90
26691;DHT22;14307;51.718;8.938;2023-04-15T14:50:03;7.90;99.90
26691;DHT22;14307;51.718;8.938;2023-04-15T14:52:31;7.90;99.90
26691;DHT22;14307;51.718;8.938;2023-04-15T14:55:11;7.90;99.90
26691;DHT22;14307;51.718;8.938;2023-04-15T14:57:38;7.90;99.90
26691;DHT22;14307;51.718;8.938;2023-04-15T15:00:07;7.90;99.90
26691;DHT22;14307;51.718;8.938;2023-04-15T15:02:34;8.00;99.90
26691;DHT22;14307;51.718;8.938;2023-04-15T15:05:06;8.00;99.90
26691;DHT22;14307;51.718;8.938;2023-04-15T15:07:33;8.00;99.90
26691;DHT22;14307;51.718;8.938;2023-04-15T15:10:02;8.00;99.90
26691;DHT22;14307;51.718;8.938;2023-04-15T15:12:29;8.00;99.90
26691;DHT22;14307;51.718;8.938;2023-04-15T15:14:56;8.00;99.90
26691;DHT22;14307;51.718;8.938;2023-04-15T15:17:22;8.00;99.90
26691;DHT22;14307;51.718;8.938;2023-04-15T15:19:49;8.00;99.90
26691;DHT22;14307;51.718;8.938;2023-04-15T15:22:16;8.00;99.90
26691;DHT22;14307;51.718;8.938;2023-04-15T15:24:46;8.10;99.90
26691;DHT22;14307;51.718;8.938;2023-04-15T15:27:13;8.10;99.90
26691;DHT22;14307;51.718;8.938;2023-04-15T15:29:39;8.10;99.90
26691;DHT22;14307;51.718;8.938;2023-04-15T15:32:06;8.10;99.90
26691;DHT22;14307;51.718;8.938;2023-04-15T15:34:33;8.10;99.90
26691;DHT22;14307;51.718;8.938;2023-04-15T15:37:00;8.00;99.90
26691;DHT22;14307;51.718;8.938;2023-04-15T15:39:26;8.00;99.90
26691;DHT22;14307;51.718;8.938;2023-04-15T15:41:53;8.00;99.90
26691;DHT22;14307;51.718;8.938;2023-04-15T15:44:20;8.10;99.90
26691;DHT22;14307;51.718;8.938;2023-04-15T15:46:47;8.00;99.90
26691;DHT22;14307;51.718;8.938;2023-04-15T15:49:15;8.00;99.90
26691;DHT22;14307;51.718;8.938;2023-04-15T15:51:42;8.00;99.90
26691;DHT22;14307;51.718;8.938;2023-04-15T15:54:08;8.10;99.90
26691;DHT22;14307;51.718;8.938;2023-04-15T15:56:35;8.20;99.90
26691;DHT22;14307;51.718;8.938;2023-04-15T15:59:04;8.30;99.90
26691;DHT22;14307;51.718;8.938;2023-04-15T16:01:31;8.30;99.90
26691;DHT22;14307;51.718;8.938;2023-04-15T16:03:58;8.20;99.90
26691;DHT22;14307;51.718;8.938;2023-04-15T16:06:25;8.20;99.90
26691;DHT22;14307;51.718;8.938;2023-04-15T16:08:52;8.20;99.90
26691;DHT22;14307;51.718;8.938;2023-04-15T16:11:18;8.20;99.90
26691;DHT22;14307;51.718;8.938;2023-04-15T16:13:45;8.20;99.90
26691;DHT22;14307;51.718;8.938;2023-04-15T16:16:12;8.20;99.90